createdAt,value
2023-03-02T00:01:40.129Z,1.50
2023-03-02T00:04:07.954Z,1.49
2023-03-02T00:06:35.815Z,1.47
2023-03-02T00:09:04.349Z,1.45
2023-03-02T00:11:32.384Z,1.41
2023-03-02T00:14:00.080Z,1.36
2023-03-02T00:16:27.722Z,1.30
2023-03-02T00:18:55.496Z,1.23
2023-03-02T00:21:24.658Z,1.16
2023-03-02T00:23:53.258Z,1.08
2023-03-02T00:26:21.071Z,1.01
2023-03-02T00:28:48.746Z,0.98
2023-03-02T00:31:16.714Z,0.97
2023-03-02T00:33:44.637Z,0.94
2023-03-02T00:36:13.443Z,0.89
2023-03-02T00:38:41.150Z,0.81
2023-03-02T00:41:08.838Z,0.74
2023-03-02T00:43:36.652Z,0.68
2023-03-02T00:46:04.904Z,0.63
2023-03-02T00:48:32.824Z,0.58
2023-03-02T00:51:00.467Z,0.53
2023-03-02T00:53:28.168Z,0.47
2023-03-02T00:55:55.849Z,0.40
2023-03-02T00:58:23.446Z,0.34
2023-03-02T01:00:51.472Z,0.26
2023-03-02T01:03:19.242Z,0.24
2023-03-02T01:05:46.889Z,0.20
2023-03-02T01:08:16.010Z,0.16
2023-03-02T01:10:43.775Z,0.14
2023-03-02T01:13:11.756Z,0.11
2023-03-02T01:15:39.372Z,0.06
2023-03-02T01:18:07.005Z,0.02
2023-03-02T01:20:34.847Z,-0.03
2023-03-02T01:23:02.432Z,-0.08
2023-03-02T01:25:30.436Z,-0.12
2023-03-02T01:27:58.326Z,-0.14
2023-03-02T01:30:25.934Z,-0.14
2023-03-02T01:32:53.663Z,-0.14
2023-03-02T01:35:21.313Z,-0.05
2023-03-02T01:37:49.350Z,0.03
2023-03-02T01:40:17.012Z,0.08
2023-03-02T01:45:43.356Z,0.17
2023-03-02T01:48:11.354Z,0.24
2023-03-02T01:50:39.375Z,0.29
2023-03-02T01:53:07.042Z,0.30
2023-03-02T01:55:34.690Z,0.28
2023-03-02T01:58:02.304Z,0.22
2023-03-02T02:00:30.366Z,0.14
2023-03-02T02:03:08.781Z,0.09
2023-03-02T02:05:36.471Z,0.06
2023-03-02T02:08:04.079Z,0.05
2023-03-02T02:10:32.085Z,0.06
2023-03-02T02:12:59.799Z,0.04
2023-03-02T02:15:27.417Z,0.05
2023-03-02T02:17:55.734Z,0.04
2023-03-02T02:20:24.196Z,0.02
2023-03-02T02:22:52.163Z,0.02
2023-03-02T02:25:19.915Z,0.04
2023-03-02T02:27:47.605Z,0.06
2023-03-02T02:30:15.434Z,0.07
2023-03-02T02:32:43.465Z,0.06
2023-03-02T02:35:11.480Z,0.06
2023-03-02T02:37:39.037Z,0.06
2023-03-02T02:40:07.686Z,0.10
2023-03-02T02:42:35.385Z,0.15
2023-03-02T02:45:02.995Z,0.17
2023-03-02T02:47:31.039Z,0.18
2023-03-02T02:49:58.894Z,0.20
2023-03-02T02:52:26.462Z,0.21
2023-03-02T02:54:55.791Z,0.22
2023-03-02T02:57:24.789Z,0.25
2023-03-02T02:59:52.737Z,0.25
2023-03-02T03:02:20.862Z,0.26
2023-03-02T03:04:48.510Z,0.25
2023-03-02T03:07:16.064Z,0.24
2023-03-02T03:09:43.690Z,0.27
2023-03-02T03:12:11.721Z,0.29
2023-03-02T03:14:39.339Z,0.31
2023-03-02T03:17:12.764Z,0.32
2023-03-02T03:19:40.606Z,0.31
2023-03-02T03:22:08.200Z,0.31
2023-03-02T03:24:36.213Z,0.31
2023-03-02T03:27:05.621Z,0.28
2023-03-02T03:29:33.300Z,0.29
2023-03-02T03:32:01.106Z,0.27
2023-03-02T03:34:28.880Z,0.26
2023-03-02T03:37:02.196Z,0.25
2023-03-02T03:39:29.815Z,0.24
2023-03-02T03:41:57.392Z,0.25
2023-03-02T03:44:25.397Z,0.25
2023-03-02T03:46:52.958Z,0.26
2023-03-02T03:49:20.900Z,0.27
2023-03-02T03:51:48.504Z,0.28
2023-03-02T03:54:16.243Z,0.27
2023-03-02T03:56:45.063Z,0.26
2023-03-02T03:59:13.858Z,0.25
2023-03-02T04:01:41.929Z,0.22
2023-03-02T04:04:09.650Z,0.23
2023-03-02T04:06:37.346Z,0.22
2023-03-02T04:09:05.838Z,0.21
2023-03-02T04:11:33.469Z,0.19
2023-03-02T04:14:01.132Z,0.19
2023-03-02T04:16:28.724Z,0.17
2023-03-02T04:18:56.769Z,0.14
2023-03-02T04:21:24.615Z,0.11
2023-03-02T04:23:52.211Z,0.11
2023-03-02T04:26:20.202Z,0.12
2023-03-02T04:28:50.960Z,0.13
2023-03-02T04:31:18.642Z,0.10
2023-03-02T04:33:46.322Z,0.08
2023-03-02T04:36:13.989Z,0.03
2023-03-02T04:38:42.052Z,0.00
2023-03-02T04:41:10.065Z,-0.03
2023-03-02T04:43:37.682Z,-0.05
2023-03-02T04:46:05.512Z,-0.08
2023-03-02T04:48:33.161Z,-0.12
2023-03-02T04:51:01.138Z,-0.17
2023-03-02T04:53:28.732Z,-0.21
2023-03-02T04:55:56.354Z,-0.24
2023-03-02T04:58:24.212Z,-0.23
2023-03-02T05:00:51.797Z,-0.21
2023-03-02T05:03:20.306Z,-0.17
2023-03-02T05:05:47.918Z,-0.14
2023-03-02T05:08:15.578Z,-0.13
2023-03-02T05:10:43.359Z,-0.11
2023-03-02T05:13:11.020Z,-0.11
2023-03-02T05:15:38.630Z,-0.08
2023-03-02T05:18:06.214Z,-0.07
2023-03-02T05:20:34.550Z,-0.06
2023-03-02T05:23:02.366Z,-0.06
2023-03-02T05:25:30.324Z,-0.06
2023-03-02T05:27:58.342Z,-0.07
2023-03-02T05:30:25.988Z,-0.08
2023-03-02T05:32:53.648Z,-0.08
2023-03-02T05:35:21.439Z,-0.03
2023-03-02T05:37:49.083Z,-0.02
2023-03-02T05:40:17.073Z,0.00
2023-03-02T05:42:44.790Z,0.02
2023-03-02T05:45:12.504Z,0.05
2023-03-02T05:47:41.492Z,0.08
2023-03-02T05:50:09.210Z,0.07
2023-03-02T05:52:37.226Z,0.07
2023-03-02T05:55:04.844Z,0.07
2023-03-02T05:57:32.581Z,0.08
2023-03-02T06:00:00.193Z,0.09
2023-03-02T06:02:27.900Z,0.08
2023-03-02T06:04:55.957Z,0.09
2023-03-02T06:07:23.613Z,0.09
2023-03-02T06:09:52.028Z,0.09
2023-03-02T06:12:19.890Z,0.06
2023-03-02T06:14:48.109Z,0.05
2023-03-02T06:17:16.121Z,0.04
2023-03-02T06:19:43.806Z,0.06
2023-03-02T06:22:11.397Z,0.07
2023-03-02T06:24:39.228Z,0.07
2023-03-02T06:27:06.940Z,0.08
2023-03-02T06:29:34.956Z,0.07
2023-03-02T06:32:02.827Z,0.06
2023-03-02T06:34:30.593Z,0.05
2023-03-02T06:36:58.622Z,0.06
2023-03-02T06:39:26.323Z,0.05
2023-03-02T06:41:54.554Z,0.04
2023-03-02T06:44:22.237Z,0.09
2023-03-02T06:46:49.867Z,0.12
2023-03-02T06:49:17.997Z,0.13
2023-03-02T06:51:45.672Z,0.16
2023-03-02T06:54:14.206Z,0.21
2023-03-02T06:56:41.907Z,0.23
2023-03-02T06:59:09.533Z,0.25
2023-03-02T07:01:37.417Z,0.27
2023-03-02T07:04:05.356Z,0.27
2023-03-02T07:06:33.340Z,0.29
2023-03-02T07:09:01.000Z,0.29
2023-03-02T07:11:28.767Z,0.31
2023-03-02T07:13:56.790Z,0.30
2023-03-02T07:16:24.767Z,0.30
2023-03-02T07:18:52.870Z,0.31
2023-03-02T07:21:20.524Z,0.34
2023-03-02T07:23:48.242Z,0.38
2023-03-02T07:26:16.339Z,0.42
2023-03-02T07:28:44.739Z,0.47
2023-03-02T07:31:12.518Z,0.57
2023-03-02T07:33:40.360Z,0.72
2023-03-02T07:36:08.186Z,0.87
2023-03-02T07:38:37.235Z,1.06
2023-03-02T07:41:05.175Z,1.29
2023-03-02T07:43:36.106Z,1.53
2023-03-02T07:46:04.619Z,1.78
2023-03-02T07:48:32.381Z,1.92
2023-03-02T07:51:00.138Z,1.98
2023-03-02T07:53:27.958Z,2.02
2023-03-02T07:55:56.158Z,2.18
2023-03-02T07:58:24.383Z,2.50
2023-03-02T08:00:52.229Z,2.83
2023-03-02T08:03:20.053Z,3.12
2023-03-02T08:05:47.743Z,3.34
2023-03-02T08:08:16.168Z,3.49
2023-03-02T08:10:43.907Z,3.65
2023-03-02T08:13:11.810Z,3.78
2023-03-02T08:15:40.327Z,4.00
2023-03-02T08:18:08.169Z,4.23
2023-03-02T08:20:36.399Z,4.46
2023-03-02T08:23:04.592Z,4.60
2023-03-02T08:25:32.500Z,4.66
2023-03-02T08:28:00.585Z,4.64
2023-03-02T08:30:28.637Z,4.63
2023-03-02T08:32:56.428Z,4.59
2023-03-02T08:35:24.269Z,4.55
2023-03-02T08:37:52.116Z,4.53
2023-03-02T08:40:20.121Z,4.59
2023-03-02T08:42:48.346Z,4.71
2023-03-02T08:45:17.028Z,4.91
2023-03-02T08:47:44.918Z,5.14
2023-03-02T08:50:15.269Z,5.26
2023-03-02T08:52:43.911Z,5.41
2023-03-02T08:55:11.727Z,5.64
2023-03-02T08:57:41.922Z,5.99
2023-03-02T09:00:14.962Z,6.43
2023-03-02T09:02:42.731Z,6.81
2023-03-02T09:05:10.630Z,7.04
2023-03-02T09:07:38.520Z,7.06
2023-03-02T09:10:06.659Z,6.97
2023-03-02T09:12:34.573Z,6.83
2023-03-02T09:15:02.605Z,6.71
2023-03-02T09:17:30.892Z,6.55
2023-03-02T09:20:00.640Z,6.44
2023-03-02T09:22:29.523Z,6.36
2023-03-02T09:24:57.342Z,6.41
2023-03-02T09:27:25.281Z,6.53
2023-03-02T09:29:53.671Z,6.57
2023-03-02T09:32:21.641Z,6.52
2023-03-02T09:34:49.955Z,6.46
2023-03-02T09:37:17.953Z,6.39
2023-03-02T09:39:45.686Z,6.35
2023-03-02T09:42:13.667Z,6.35
2023-03-02T09:44:42.034Z,6.34
2023-03-02T09:47:10.141Z,6.32
2023-03-02T09:49:38.017Z,6.32
2023-03-02T09:52:06.056Z,6.34
2023-03-02T09:54:34.028Z,6.40
2023-03-02T09:57:02.310Z,6.48
2023-03-02T09:59:30.848Z,6.57
2023-03-02T10:02:01.548Z,6.67
2023-03-02T10:04:29.443Z,6.79
2023-03-02T10:06:58.153Z,6.88
2023-03-02T10:09:26.448Z,7.07
2023-03-02T10:11:55.609Z,7.29
2023-03-02T10:14:23.607Z,7.51
2023-03-02T10:16:51.462Z,7.76
2023-03-02T10:19:19.607Z,8.33
2023-03-02T10:21:47.636Z,9.17
2023-03-02T10:24:16.133Z,10.12
2023-03-02T10:26:43.874Z,11.13
2023-03-02T10:29:11.774Z,12.08
2023-03-02T10:31:39.834Z,12.92
2023-03-02T10:34:07.687Z,13.65
2023-03-02T10:36:36.281Z,14.23
2023-03-02T10:39:04.431Z,14.73
2023-03-02T10:41:32.958Z,15.29
2023-03-02T10:44:01.114Z,15.71
2023-03-02T10:46:29.023Z,16.08
2023-03-02T10:48:58.301Z,16.26
2023-03-02T10:51:26.176Z,16.35
2023-03-02T10:53:54.272Z,16.62
2023-03-02T10:56:22.584Z,17.02
2023-03-02T10:58:50.411Z,17.43
2023-03-02T11:01:18.900Z,17.75
2023-03-02T11:03:46.913Z,18.01
2023-03-02T11:06:14.742Z,18.27
2023-03-02T11:08:42.984Z,18.29
2023-03-02T11:11:10.984Z,18.17
2023-03-02T11:13:39.364Z,18.08
2023-03-02T11:16:07.428Z,17.99
2023-03-02T11:18:35.271Z,17.96
2023-03-02T11:21:04.281Z,17.88
2023-03-02T11:23:32.601Z,17.69
2023-03-02T11:26:00.773Z,17.76
2023-03-02T11:28:29.237Z,17.88
2023-03-02T11:30:57.082Z,17.98
2023-03-02T11:33:25.169Z,18.11
2023-03-02T11:35:53.215Z,18.22
2023-03-02T11:38:21.965Z,18.22
2023-03-02T11:40:49.722Z,18.19
2023-03-02T11:43:17.688Z,18.13
2023-03-02T11:45:45.833Z,18.28
2023-03-02T11:48:13.834Z,18.62
2023-03-02T11:50:41.781Z,18.91
2023-03-02T11:53:09.695Z,19.24
2023-03-02T11:55:37.577Z,19.45
2023-03-02T11:58:05.862Z,19.78
2023-03-02T12:00:33.677Z,19.90
2023-03-02T12:03:02.066Z,20.05
2023-03-02T12:05:30.127Z,20.15
2023-03-02T12:07:58.121Z,20.13
2023-03-02T12:10:28.772Z,20.12
2023-03-02T12:12:56.814Z,20.25
2023-03-02T12:15:25.190Z,20.38
2023-03-02T12:17:53.502Z,20.49
2023-03-02T12:20:21.548Z,20.75
2023-03-02T12:22:50.989Z,20.87
2023-03-02T12:25:20.171Z,20.93
2023-03-02T12:27:49.384Z,21.23
2023-03-02T12:30:17.320Z,21.44
2023-03-02T12:32:45.395Z,21.63
2023-03-02T12:35:14.209Z,21.55
2023-03-02T12:37:42.027Z,21.32
2023-03-02T12:40:10.514Z,20.91
2023-03-02T12:42:38.617Z,20.33
2023-03-02T12:45:06.826Z,19.83
2023-03-02T12:47:35.561Z,19.37
2023-03-02T12:50:03.676Z,18.93
2023-03-02T12:52:32.319Z,18.67
2023-03-02T12:55:00.231Z,18.44
2023-03-02T12:57:28.319Z,18.23
2023-03-02T12:59:56.763Z,17.94
2023-03-02T13:02:24.727Z,17.49
2023-03-02T13:04:53.533Z,17.06
2023-03-02T13:07:21.624Z,16.67
2023-03-02T13:09:56.196Z,16.23
2023-03-02T13:12:24.855Z,16.01
2023-03-02T13:14:52.754Z,15.81
2023-03-02T13:17:20.947Z,15.57
2023-03-02T13:19:50.795Z,15.27
2023-03-02T13:22:18.842Z,15.02
2023-03-02T13:24:46.757Z,14.86
2023-03-02T13:27:14.768Z,14.62
2023-03-02T13:29:43.136Z,14.47
2023-03-02T13:32:11.086Z,14.40
2023-03-02T13:34:39.037Z,14.35
2023-03-02T13:37:06.886Z,14.20
2023-03-02T13:39:34.809Z,13.91
2023-03-02T13:42:02.782Z,13.66
2023-03-02T13:44:30.582Z,13.42
2023-03-02T13:46:58.507Z,13.32
2023-03-02T13:49:28.161Z,13.31
2023-03-02T13:51:56.071Z,13.22
2023-03-02T13:54:24.550Z,13.15
2023-03-02T13:56:52.731Z,13.18
2023-03-02T13:59:20.597Z,13.29
2023-03-02T14:01:48.405Z,13.38
2023-03-02T14:04:17.007Z,13.55
2023-03-02T14:06:45.386Z,13.71
2023-03-02T14:09:13.283Z,13.87
2023-03-02T14:11:41.759Z,14.05
2023-03-02T14:14:09.978Z,14.30
2023-03-02T14:16:37.836Z,14.56
2023-03-02T14:19:06.068Z,14.70
2023-03-02T14:21:36.468Z,14.78
2023-03-02T14:24:04.590Z,14.77
2023-03-02T14:26:32.745Z,14.69
2023-03-02T14:29:05.733Z,14.63
2023-03-02T14:31:34.806Z,14.51
2023-03-02T14:34:02.988Z,14.31
2023-03-02T14:36:31.083Z,14.05
2023-03-02T14:38:59.233Z,13.78
2023-03-02T14:41:27.090Z,13.72
2023-03-02T14:43:55.644Z,13.79
2023-03-02T14:46:23.898Z,13.96
2023-03-02T14:48:51.633Z,14.02
2023-03-02T14:51:20.048Z,14.11
2023-03-02T14:53:48.420Z,14.23
2023-03-02T14:56:16.940Z,14.42
2023-03-02T14:58:44.789Z,14.55
2023-03-02T15:01:12.650Z,14.50
2023-03-02T15:03:40.697Z,14.50
2023-03-02T15:06:08.602Z,14.51
2023-03-02T15:08:37.349Z,14.46
2023-03-02T15:11:05.245Z,14.48
2023-03-02T15:13:32.933Z,14.60
2023-03-02T15:16:02.749Z,14.85
2023-03-02T15:18:30.762Z,15.08
2023-03-02T15:20:59.224Z,15.26
2023-03-02T15:23:27.336Z,15.43
2023-03-02T15:25:55.189Z,15.74
2023-03-02T15:28:23.103Z,16.05
2023-03-02T15:30:51.013Z,16.32
2023-03-02T15:33:19.576Z,16.62
2023-03-02T15:35:47.534Z,17.00
2023-03-02T15:38:16.042Z,17.23
2023-03-02T15:40:44.697Z,17.48
2023-03-02T15:43:12.797Z,17.80
2023-03-02T15:45:41.485Z,18.04
2023-03-02T15:48:09.662Z,18.18
2023-03-02T15:50:38.136Z,18.28
2023-03-02T15:53:06.335Z,18.34
2023-03-02T15:55:34.309Z,17.96
2023-03-02T15:58:02.348Z,17.36
2023-03-02T16:00:30.307Z,16.22
2023-03-02T16:02:58.311Z,15.06
2023-03-02T16:05:26.218Z,14.07
2023-03-02T16:07:54.389Z,13.26
2023-03-02T16:10:25.416Z,12.61
2023-03-02T16:12:53.338Z,12.07
2023-03-02T16:15:21.440Z,11.61
2023-03-02T16:17:49.408Z,11.21
2023-03-02T16:20:17.249Z,10.87
2023-03-02T16:22:46.125Z,10.55
2023-03-02T16:25:13.880Z,10.27
2023-03-02T16:27:45.309Z,10.03
2023-03-02T16:30:14.391Z,9.80
2023-03-02T16:32:42.363Z,9.61
2023-03-02T16:35:10.926Z,9.44
2023-03-02T16:37:38.942Z,9.28
2023-03-02T16:40:06.817Z,9.11
2023-03-02T16:42:34.849Z,8.96
2023-03-02T16:45:03.389Z,8.83
2023-03-02T16:47:31.618Z,8.70
2023-03-02T16:49:59.460Z,8.55
2023-03-02T16:52:27.568Z,8.42
2023-03-02T16:54:55.416Z,8.30
2023-03-02T16:57:23.314Z,8.18
2023-03-02T16:59:51.336Z,8.07
2023-03-02T17:02:19.306Z,7.96
2023-03-02T17:04:47.128Z,7.84
2023-03-02T17:07:17.195Z,7.72
2023-03-02T17:09:45.047Z,7.62
2023-03-02T17:12:13.222Z,7.53
2023-03-02T17:14:41.392Z,7.42
2023-03-02T17:17:09.264Z,7.32
2023-03-02T17:19:37.393Z,7.22
2023-03-02T17:22:05.502Z,7.15
2023-03-02T17:24:33.786Z,7.06
2023-03-02T17:27:01.740Z,7.01
2023-03-02T17:29:29.803Z,6.95
2023-03-02T17:31:57.734Z,6.88
2023-03-02T17:34:28.836Z,6.78
2023-03-02T17:36:57.668Z,6.67
2023-03-02T17:39:26.066Z,6.58
2023-03-02T17:41:53.915Z,6.48
2023-03-02T17:44:22.113Z,6.37
2023-03-02T17:46:50.027Z,6.28
2023-03-02T17:49:19.004Z,6.19
2023-03-02T17:51:46.950Z,6.10
2023-03-02T17:54:14.833Z,5.99
2023-03-02T17:56:42.778Z,5.91
2023-03-02T17:59:10.766Z,5.83
2023-03-02T18:01:39.247Z,5.73
2023-03-02T18:04:07.335Z,5.65
2023-03-02T18:06:35.467Z,5.53
2023-03-02T18:09:03.891Z,5.46
2023-03-02T18:11:32.156Z,5.39
2023-03-02T18:14:00.239Z,5.32
2023-03-02T18:16:28.178Z,5.25
2023-03-02T18:18:56.254Z,5.19
2023-03-02T18:21:24.587Z,5.13
2023-03-02T18:23:52.580Z,5.07
2023-03-02T18:26:21.085Z,5.01
2023-03-02T18:28:49.102Z,4.95
2023-03-02T18:31:17.173Z,4.90
2023-03-02T18:33:47.073Z,4.84
2023-03-02T18:36:15.133Z,4.80
2023-03-02T18:38:43.334Z,4.74
2023-03-02T18:41:11.297Z,4.69
2023-03-02T18:43:39.358Z,4.66
2023-03-02T18:46:08.811Z,4.63
2023-03-02T18:48:37.906Z,4.60
2023-03-02T18:51:06.104Z,4.55
2023-03-02T18:53:34.295Z,4.52
2023-03-02T18:56:02.586Z,4.48
2023-03-02T18:58:34.432Z,4.44
2023-03-02T19:01:02.553Z,4.38
2023-03-02T19:03:31.052Z,4.34
2023-03-02T19:05:59.435Z,4.29
2023-03-02T19:08:27.387Z,4.24
2023-03-02T19:10:55.517Z,4.19
2023-03-02T19:13:23.480Z,4.12
2023-03-02T19:15:52.738Z,4.07
2023-03-02T19:18:22.673Z,4.00
2023-03-02T19:20:50.659Z,3.96
2023-03-02T19:23:18.908Z,3.90
2023-03-02T19:25:46.876Z,3.85
2023-03-02T19:28:15.491Z,3.78
2023-03-02T19:30:43.464Z,3.72
2023-03-02T19:33:11.352Z,3.69
2023-03-02T19:35:39.733Z,3.65
2023-03-02T19:38:07.756Z,3.61
2023-03-02T19:40:36.398Z,3.55
2023-03-02T19:43:04.952Z,3.49
2023-03-02T19:45:32.983Z,3.42
2023-03-02T19:48:01.137Z,3.34
2023-03-02T19:50:29.097Z,3.25
2023-03-02T19:52:56.906Z,3.16
2023-03-02T19:55:25.220Z,3.11
2023-03-02T19:57:59.888Z,3.06
2023-03-02T20:00:28.205Z,3.02
2023-03-02T20:02:56.629Z,2.97
2023-03-02T20:05:26.209Z,2.91
2023-03-02T20:07:54.037Z,2.83
2023-03-02T20:10:21.990Z,2.77
2023-03-02T20:12:50.047Z,2.72
2023-03-02T20:15:17.906Z,2.67
2023-03-02T20:17:46.053Z,2.60
2023-03-02T20:20:14.191Z,2.55
2023-03-02T20:22:41.974Z,2.50
2023-03-02T20:25:11.595Z,2.50
2023-03-02T20:27:39.564Z,2.51
2023-03-02T20:30:08.193Z,2.55
2023-03-02T20:32:36.151Z,2.61
2023-03-02T20:35:04.196Z,2.66
2023-03-02T20:37:32.673Z,2.71
2023-03-02T20:40:00.756Z,2.78
2023-03-02T20:42:32.010Z,2.85
2023-03-02T20:45:00.636Z,2.89
2023-03-02T20:47:28.887Z,2.93
2023-03-02T20:49:57.296Z,2.96
2023-03-02T20:52:25.211Z,2.98
2023-03-02T20:54:53.381Z,3.02
2023-03-02T20:57:21.657Z,3.06
2023-03-02T20:59:49.551Z,3.10
2023-03-02T21:02:17.762Z,3.15
2023-03-02T21:04:45.581Z,3.20
2023-03-02T21:07:13.892Z,3.20
2023-03-02T21:09:42.170Z,3.22
2023-03-02T21:12:12.117Z,3.23
2023-03-02T21:14:40.500Z,3.24
2023-03-02T21:17:08.381Z,3.25
2023-03-02T21:19:36.818Z,3.27
2023-03-02T21:22:04.672Z,3.28
2023-03-02T21:24:32.522Z,3.28
2023-03-02T21:27:01.673Z,3.28
2023-03-02T21:29:30.006Z,3.30
2023-03-02T21:31:58.299Z,3.31
2023-03-02T21:34:26.402Z,3.32
2023-03-02T21:36:54.586Z,3.33
2023-03-02T21:39:23.881Z,3.33
2023-03-02T21:41:51.697Z,3.32
2023-03-02T21:44:20.077Z,3.32
2023-03-02T21:46:47.997Z,3.30
2023-03-02T21:49:15.854Z,3.29
2023-03-02T21:51:44.005Z,3.26
2023-03-02T21:54:12.461Z,3.23
2023-03-02T21:56:40.579Z,3.19
2023-03-02T21:59:08.419Z,3.18
2023-03-02T22:01:36.163Z,3.14
2023-03-02T22:04:04.371Z,3.15
2023-03-02T22:06:32.263Z,3.16
2023-03-02T22:09:00.107Z,3.18
2023-03-02T22:11:28.277Z,3.18
2023-03-02T22:13:56.207Z,3.20
2023-03-02T22:16:25.745Z,3.20
2023-03-02T22:18:53.707Z,3.18
2023-03-02T22:21:21.788Z,3.14
2023-03-02T22:23:49.678Z,3.10
2023-03-02T22:26:17.455Z,3.08
2023-03-02T22:28:45.242Z,3.07
2023-03-02T22:31:13.053Z,3.09
2023-03-02T22:33:41.838Z,3.08
2023-03-02T22:36:09.669Z,3.08
2023-03-02T22:38:37.773Z,3.07
2023-03-02T22:41:05.648Z,3.08
2023-03-02T22:43:34.408Z,3.03
2023-03-02T22:46:02.289Z,2.97
2023-03-02T22:48:30.044Z,2.95
2023-03-02T22:50:57.719Z,2.93
2023-03-02T22:53:25.615Z,2.90
2023-03-02T22:55:53.292Z,2.90
2023-03-02T22:58:21.473Z,2.89
2023-03-02T23:00:49.392Z,2.89
2023-03-02T23:03:17.646Z,2.88
2023-03-02T23:05:49.160Z,2.83
2023-03-02T23:08:18.398Z,2.78
2023-03-02T23:10:46.153Z,2.74
2023-03-02T23:13:13.881Z,2.71
2023-03-02T23:15:42.894Z,2.68
2023-03-02T23:18:10.904Z,2.64
2023-03-02T23:20:38.583Z,2.60
2023-03-02T23:23:07.030Z,2.58
2023-03-02T23:25:34.736Z,2.57
2023-03-02T23:28:02.444Z,2.55
2023-03-02T23:30:30.688Z,2.54
2023-03-02T23:32:58.372Z,2.53
2023-03-02T23:35:26.470Z,2.51
2023-03-02T23:37:54.244Z,2.53
2023-03-02T23:40:22.245Z,2.50
2023-03-02T23:42:50.104Z,2.53
2023-03-02T23:45:18.081Z,2.54
2023-03-02T23:47:46.146Z,2.53
2023-03-02T23:50:13.804Z,2.54
2023-03-02T23:52:41.503Z,2.54
2023-03-02T23:55:09.342Z,2.51
2023-03-02T23:57:36.953Z,2.47
